Jericho, Mississippi
Current Conditions -  °F | °C
As of 4:53 PM on Wednesday 22 Oct 2014 (Local Time) from KTUP Reporting Station
Clear Clear  
Wind Chill: 67°   Ceiling: Unl
Heat Index: 67°   Visibility: 10mi
Dew Point: 42°   Wind: 12mph
Humidity: 40%   Direction: 40°NE
Pressure: 30.14"   Gusts: NA
Location:  34.5357°N, 88.6348°W
Report Text: KTUP 222153Z AUTO 04010KT 10SM CLR 19/06 A3014 RMK AO2 SLP205 T01940056 PWINO
Loading
Personal Weather Stations






























Interactive Weather Map
Tropical Storm Tracking
New forecast layout! Learn more

10-Day Weather Forecast

Advertisements
Track Severe Weather on mobile